Algoma Strongfield — CFJ8305 — position and weather

sailwx.info

Track history (hours):
 
Tides and Currents Weather Stations Pressure Air Temp Water Temp Dewpoint Dewpoint Depression Visibility Wind Speed Wind Dir Waves Ship Positions

Algoma Strongfield

Last reported at 2017-Nov-19 01:15 UTC. Time now 2017-Nov-20 04:02 UTC.
Position N 46°54' W 091°35'.

Length 226 m; draft 7.3 m.

Type: Ship. MMSI: 316014060.

Date/timePositionNaut miles runAvg speedWind from/ knotsBaromVisibWave heightAir tempDewpointWater temp
2017-Nov-19 01:15N 46°54' W 091°35'313.7
2017-Nov-19 01:00N 46°52' W 091°40'713.6
2017-Nov-19 00:30N 46°48' W 091°48'713.6
2017-Nov-19 00:01N 46°44' W 091°56'4 8.2
2017-Nov-18 23:30N 46°42' W 092°01'0 0.5
2017-Nov-18 23:01N 46°42' W 092°01'0 0.1
2017-Nov-18 22:28N 46°42' W 092°01'0 0.0
2017-Nov-18 21:58N 46°42' W 092°01'0 0.0
2017-Nov-18 21:25N 46°42' W 092°01'0 0.0
2017-Nov-18 20:55N 46°42' W 092°01'0 0.0
2017-Nov-18 20:28N 46°42' W 092°01'0 0.0
2017-Nov-18 19:58N 46°42' W 092°01'0 0.0
2017-Nov-18 19:28N 46°42' W 092°01'0 0.0
2017-Nov-18 18:58N 46°42' W 092°01'0 0.0
2017-Nov-18 18:28N 46°42' W 092°01'0 0.0
2017-Nov-18 17:58N 46°42' W 092°01'0 0.0
2017-Nov-18 17:28N 46°42' W 092°01'0 0.0
2017-Nov-18 16:58N 46°42' W 092°01'0 0.0
2017-Nov-18 16:28N 46°42' W 092°01'0 0.0
2017-Nov-18 15:58N 46°42' W 092°01'0 0.0
2017-Nov-18 15:28N 46°42' W 092°01'0 0.0
2017-Nov-18 14:58N 46°42' W 092°01'0 0.0
2017-Nov-18 14:28N 46°42' W 092°01'0 0.0
2017-Nov-18 13:58N 46°42' W 092°01'0 0.0
2017-Nov-18 13:28N 46°42' W 092°01'0 0.0
2017-Nov-18 12:58N 46°42' W 092°01'0 0.0
2017-Nov-18 12:28N 46°42' W 092°01'0 0.0
2017-Nov-18 11:52N 46°42' W 092°01'0 0.0
2017-Nov-18 11:20N 46°42' W 092°01'0 0.0
2017-Nov-18 11:00N 46°42' W 092°01'0 0.0
2017-Nov-18 10:30N 46°42' W 092°01'0 0.0
2017-Nov-18 09:58N 46°42' W 092°01'0 0.0
2017-Nov-18 09:30N 46°42' W 092°01'0 0.0
2017-Nov-18 09:00N 46°42' W 092°01'0 0.0
2017-Nov-18 08:30N 46°42' W 092°01'0 0.0
2017-Nov-18 08:00N 46°42' W 092°01'0 0.0
2017-Nov-18 07:30N 46°42' W 092°01'0 0.0
2017-Nov-18 07:00N 46°42' W 092°01'0 0.0
2017-Nov-18 06:30N 46°42' W 092°01'0 0.0
2017-Nov-18 06:00N 46°42' W 092°01'0 0.6
2017-Nov-18 05:30N 46°42' W 092°01'2 3.5
2017-Nov-18 05:01N 46°44' W 091°59'1 1.0
2017-Nov-18 04:30N 46°43' W 092°00'0 0.1
2017-Nov-18 04:00N 46°43' W 091°60'0 0.2
2017-Nov-18 03:30N 46°43' W 091°60'0 0.1
2017-Nov-18 02:51N 46°43' W 091°60'0 0.3
2017-Nov-18 02:30N 46°43' W 091°60'0 0.4
2017-Nov-18 02:00N 46°43' W 091°60'0 0.1
2017-Nov-18 01:21N 46°43' W 091°60'0 0.1
2017-Nov-18 00:51N 46°43' W 091°60'0 0.1
2017-Nov-18 00:21N 46°43' W 091°60'0 0.0
2017-Nov-18 00:00N 46°43' W 091°60'0 0.0
2017-Nov-17 23:30N 46°43' W 091°60'0 0.1
2017-Nov-17 22:57N 46°43' W 091°60'0 0.1
2017-Nov-17 22:30N 46°43' W 091°60'0 0.0
2017-Nov-17 21:57N 46°43' W 091°60'0 0.1
2017-Nov-17 21:24N 46°43' W 091°60'0 0.1
2017-Nov-17 20:57N 46°43' W 091°60'0 0.4
2017-Nov-17 20:24N 46°43' W 091°60'0 0.2
2017-Nov-17 19:57N 46°43' W 091°60'0 0.1
2017-Nov-17 19:27N 46°43' W 091°60'0 0.0
2017-Nov-17 18:57N 46°43' W 091°60'0 0.2
2017-Nov-17 18:30N 46°43' W 091°60'0 0.1
2017-Nov-17 18:00N 46°43' W 091°60'0 0.1
2017-Nov-17 17:30N 46°43' W 091°60'0 0.2
2017-Nov-17 17:00N 46°43' W 091°60'0 0.1
2017-Nov-17 16:30N 46°43' W 091°60'0 0.1
2017-Nov-17 16:00N 46°43' W 091°60'510.4
2017-Nov-17 15:30N 46°46' W 091°53'713.9
2017-Nov-17 15:00N 46°49' W 091°44'338 9.3
2017-Nov-16 02:47N 45°46' W 083°43'413.4
2017-Nov-16 02:29N 45°43' W 083°40'713.7
2017-Nov-16 02:00N 45°38' W 083°35'714.0
2017-Nov-16 01:30N 45°32' W 083°29'714.2
2017-Nov-16 01:00N 45°26' W 083°23'  
2017-Nov-12 23:40N 45°12' W 074°18'411.2
2017-Nov-12 23:21N 45°14' W 074°13'3 9.7
2017-Nov-12 23:00N 45°14' W 074°09'4 8.7
2017-Nov-12 22:30N 45°13' W 074°02'4 8.6
2017-Nov-12 22:00N 45°16' W 073°57'3 5.7
2017-Nov-12 21:30N 45°18' W 073°56'0 0.6
2017-Nov-12 21:00N 45°19' W 073°55'1 1.1
2017-Nov-12 20:30N 45°19' W 073°55'0 0.9
2017-Nov-12 20:00N 45°19' W 073°55'2 3.6
2017-Nov-12 19:30N 45°21' W 073°53'510.2
2017-Nov-12 19:00N 45°24' W 073°47'4 8.5
2017-Nov-12 18:30N 45°25' W 073°41'3 5.7
2017-Nov-12 18:00N 45°24' W 073°38'3 5.3
2017-Nov-12 17:30N 45°24' W 073°34'0 0.5
2017-Nov-12 16:55N 45°24' W 073°33'1 1.5
2017-Nov-12 16:02N 45°25' W 073°32'1 5.2
2017-Nov-12 15:55N 45°25' W 073°31'2 5.0
2017-Nov-12 15:29N 45°27' W 073°30'  
2017-Nov-09 11:05N 45°42' W 073°26'1011.2
2017-Nov-09 10:09N 45°33' W 073°32'2 7.4
2017-Nov-09 09:57N 45°31' W 073°31'2 2.1
2017-Nov-09 09:13N 45°30' W 073°31'0 0.6
2017-Nov-09 09:00N 45°29' W 073°31'1 2.0
2017-Nov-09 08:30N 45°29' W 073°30'3 5.3
2017-Nov-09 08:00N 45°26' W 073°30'3 5.3
2017-Nov-09 07:30N 45°24' W 073°33'0 0.8
2017-Nov-09 07:00N 45°24' W 073°34'0 0.8
2017-Nov-09 06:30N 45°24' W 073°35'2 4.3
2017-Nov-09 06:00N 45°24' W 073°38'3 5.5
2017-Nov-09 05:30N 45°25' W 073°41'4 7.3
2017-Nov-09 05:00N 45°24' W 073°46'612.0
2017-Nov-09 04:30N 45°21' W 073°53'2 4.3
2017-Nov-09 04:00N 45°19' W 073°55'0 0.4
2017-Nov-09 03:30N 45°19' W 073°55'1 1.3
2017-Nov-09 03:00N 45°18' W 073°56'0 0.3
2017-Nov-09 02:30N 45°18' W 073°56'1 2.4
2017-Nov-09 02:00N 45°17' W 073°56'3 5.5
2017-Nov-09 01:30N 45°15' W 073°59'  
Track history (hours):
 
Tides and Currents Weather Stations Pressure Air Temp Water Temp Dewpoint Dewpoint Depression Visibility Wind Speed Wind Dir Waves Ship Positions

Algoma Strongfield

Last reported at 2017-Nov-19 01:15 UTC. Time now 2017-Nov-20 04:02 UTC.
Position N 46°54' W 091°35'.

Length 226 m; draft 7.3 m.

Type: Ship. MMSI: 316014060.

Date/timePositionNaut miles runAvg speedWind from/ knotsBaromVisibWave heightAir tempDewpointWater temp
2017-Nov-19 01:15N 46°54' W 091°35'313.7
2017-Nov-19 01:00N 46°52' W 091°40'713.6
2017-Nov-19 00:30N 46°48' W 091°48'713.6
2017-Nov-19 00:01N 46°44' W 091°56'4 8.2
2017-Nov-18 23:30N 46°42' W 092°01'0 0.5
2017-Nov-18 23:01N 46°42' W 092°01'0 0.1
2017-Nov-18 22:28N 46°42' W 092°01'0 0.0
2017-Nov-18 21:58N 46°42' W 092°01'0 0.0
2017-Nov-18 21:25N 46°42' W 092°01'0 0.0
2017-Nov-18 20:55N 46°42' W 092°01'0 0.0
2017-Nov-18 20:28N 46°42' W 092°01'0 0.0
2017-Nov-18 19:58N 46°42' W 092°01'0 0.0
2017-Nov-18 19:28N 46°42' W 092°01'0 0.0
2017-Nov-18 18:58N 46°42' W 092°01'0 0.0
2017-Nov-18 18:28N 46°42' W 092°01'0 0.0
2017-Nov-18 17:58N 46°42' W 092°01'0 0.0
2017-Nov-18 17:28N 46°42' W 092°01'0 0.0
2017-Nov-18 16:58N 46°42' W 092°01'0 0.0
2017-Nov-18 16:28N 46°42' W 092°01'0 0.0
2017-Nov-18 15:58N 46°42' W 092°01'0 0.0
2017-Nov-18 15:28N 46°42' W 092°01'0 0.0
2017-Nov-18 14:58N 46°42' W 092°01'0 0.0
2017-Nov-18 14:28N 46°42' W 092°01'0 0.0
2017-Nov-18 13:58N 46°42' W 092°01'0 0.0
2017-Nov-18 13:28N 46°42' W 092°01'0 0.0
2017-Nov-18 12:58N 46°42' W 092°01'0 0.0
2017-Nov-18 12:28N 46°42' W 092°01'0 0.0
2017-Nov-18 11:52N 46°42' W 092°01'0 0.0
2017-Nov-18 11:20N 46°42' W 092°01'0 0.0
2017-Nov-18 11:00N 46°42' W 092°01'0 0.0
2017-Nov-18 10:30N 46°42' W 092°01'0 0.0
2017-Nov-18 09:58N 46°42' W 092°01'0 0.0
2017-Nov-18 09:30N 46°42' W 092°01'0 0.0
2017-Nov-18 09:00N 46°42' W 092°01'0 0.0
2017-Nov-18 08:30N 46°42' W 092°01'0 0.0
2017-Nov-18 08:00N 46°42' W 092°01'0 0.0
2017-Nov-18 07:30N 46°42' W 092°01'0 0.0
2017-Nov-18 07:00N 46°42' W 092°01'0 0.0
2017-Nov-18 06:30N 46°42' W 092°01'0 0.0
2017-Nov-18 06:00N 46°42' W 092°01'0 0.6
2017-Nov-18 05:30N 46°42' W 092°01'2 3.5
2017-Nov-18 05:01N 46°44' W 091°59'1 1.0
2017-Nov-18 04:30N 46°43' W 092°00'0 0.1
2017-Nov-18 04:00N 46°43' W 091°60'0 0.2
2017-Nov-18 03:30N 46°43' W 091°60'0 0.1
2017-Nov-18 02:51N 46°43' W 091°60'0 0.3
2017-Nov-18 02:30N 46°43' W 091°60'0 0.4
2017-Nov-18 02:00N 46°43' W 091°60'0 0.1
2017-Nov-18 01:21N 46°43' W 091°60'0 0.1
2017-Nov-18 00:51N 46°43' W 091°60'0 0.1
2017-Nov-18 00:21N 46°43' W 091°60'0 0.0
2017-Nov-18 00:00N 46°43' W 091°60'0 0.0
2017-Nov-17 23:30N 46°43' W 091°60'0 0.1
2017-Nov-17 22:57N 46°43' W 091°60'0 0.1
2017-Nov-17 22:30N 46°43' W 091°60'0 0.0
2017-Nov-17 21:57N 46°43' W 091°60'0 0.1
2017-Nov-17 21:24N 46°43' W 091°60'0 0.1
2017-Nov-17 20:57N 46°43' W 091°60'0 0.4
2017-Nov-17 20:24N 46°43' W 091°60'0 0.2
2017-Nov-17 19:57N 46°43' W 091°60'0 0.1
2017-Nov-17 19:27N 46°43' W 091°60'0 0.0
2017-Nov-17 18:57N 46°43' W 091°60'0 0.2
2017-Nov-17 18:30N 46°43' W 091°60'0 0.1
2017-Nov-17 18:00N 46°43' W 091°60'0 0.1
2017-Nov-17 17:30N 46°43' W 091°60'0 0.2
2017-Nov-17 17:00N 46°43' W 091°60'0 0.1
2017-Nov-17 16:30N 46°43' W 091°60'0 0.1
2017-Nov-17 16:00N 46°43' W 091°60'510.4
2017-Nov-17 15:30N 46°46' W 091°53'713.9
2017-Nov-17 15:00N 46°49' W 091°44'338 9.3
2017-Nov-16 02:47N 45°46' W 083°43'413.4
2017-Nov-16 02:29N 45°43' W 083°40'713.7
2017-Nov-16 02:00N 45°38' W 083°35'714.0
2017-Nov-16 01:30N 45°32' W 083°29'714.2
2017-Nov-16 01:00N 45°26' W 083°23'  
2017-Nov-12 23:40N 45°12' W 074°18'411.2
2017-Nov-12 23:21N 45°14' W 074°13'3 9.7
2017-Nov-12 23:00N 45°14' W 074°09'4 8.7
2017-Nov-12 22:30N 45°13' W 074°02'4 8.6
2017-Nov-12 22:00N 45°16' W 073°57'3 5.7
2017-Nov-12 21:30N 45°18' W 073°56'0 0.6
2017-Nov-12 21:00N 45°19' W 073°55'1 1.1
2017-Nov-12 20:30N 45°19' W 073°55'0 0.9
2017-Nov-12 20:00N 45°19' W 073°55'2 3.6
2017-Nov-12 19:30N 45°21' W 073°53'510.2
2017-Nov-12 19:00N 45°24' W 073°47'4 8.5
2017-Nov-12 18:30N 45°25' W 073°41'3 5.7
2017-Nov-12 18:00N 45°24' W 073°38'3 5.3
2017-Nov-12 17:30N 45°24' W 073°34'0 0.5
2017-Nov-12 16:55N 45°24' W 073°33'1 1.5
2017-Nov-12 16:02N 45°25' W 073°32'1 5.2
2017-Nov-12 15:55N 45°25' W 073°31'2 5.0
2017-Nov-12 15:29N 45°27' W 073°30'  
2017-Nov-09 11:05N 45°42' W 073°26'1011.2
2017-Nov-09 10:09N 45°33' W 073°32'2 7.4
2017-Nov-09 09:57N 45°31' W 073°31'2 2.1
2017-Nov-09 09:13N 45°30' W 073°31'0 0.6
2017-Nov-09 09:00N 45°29' W 073°31'1 2.0
2017-Nov-09 08:30N 45°29' W 073°30'3 5.3
2017-Nov-09 08:00N 45°26' W 073°30'3 5.3
2017-Nov-09 07:30N 45°24' W 073°33'0 0.8
2017-Nov-09 07:00N 45°24' W 073°34'0 0.8
2017-Nov-09 06:30N 45°24' W 073°35'2 4.3
2017-Nov-09 06:00N 45°24' W 073°38'3 5.5
2017-Nov-09 05:30N 45°25' W 073°41'4 7.3
2017-Nov-09 05:00N 45°24' W 073°46'612.0
2017-Nov-09 04:30N 45°21' W 073°53'2 4.3
2017-Nov-09 04:00N 45°19' W 073°55'0 0.4
2017-Nov-09 03:30N 45°19' W 073°55'1 1.3
2017-Nov-09 03:00N 45°18' W 073°56'0 0.3
2017-Nov-09 02:30N 45°18' W 073°56'1 2.4
2017-Nov-09 02:00N 45°17' W 073°56'3 5.5
2017-Nov-09 01:30N 45°15' W 073°59'  

Dump ship's entire track history